sensor_id;sensor_type;location;lat;lon;timestamp;P1;durP1;ratioP1;P2;durP2;ratioP2
18574;SDS011;9417;16.484;102.872;2022-10-12T00:01:19;17.08;;;14.10;;
18574;SDS011;9417;16.484;102.872;2022-10-12T00:03:27;19.65;;;15.10;;
18574;SDS011;9417;16.484;102.872;2022-10-12T00:05:34;19.58;;;15.27;;
18574;SDS011;9417;16.484;102.872;2022-10-12T00:07:41;18.05;;;13.98;;
18574;SDS011;9417;16.484;102.872;2022-10-12T00:09:48;19.10;;;15.13;;
18574;SDS011;9417;16.484;102.872;2022-10-12T00:11:56;20.73;;;14.00;;
18574;SDS011;9417;16.484;102.872;2022-10-12T00:14:05;18.00;;;13.02;;
18574;SDS011;9417;16.484;102.872;2022-10-12T00:16:13;17.85;;;13.73;;
18574;SDS011;9417;16.484;102.872;2022-10-12T00:18:22;17.63;;;13.85;;
18574;SDS011;9417;16.484;102.872;2022-10-12T00:20:29;21.00;;;13.38;;
18574;SDS011;9417;16.484;102.872;2022-10-12T00:22:36;16.65;;;13.50;;
18574;SDS011;9417;16.484;102.872;2022-10-12T00:24:43;20.92;;;13.90;;
18574;SDS011;9417;16.484;102.872;2022-10-12T00:26:50;18.60;;;13.60;;
18574;SDS011;9417;16.484;102.872;2022-10-12T00:28:58;22.67;;;14.02;;
18574;SDS011;9417;16.484;102.872;2022-10-12T00:31:07;18.55;;;13.82;;
18574;SDS011;9417;16.484;102.872;2022-10-12T00:33:15;18.63;;;12.60;;
18574;SDS011;9417;16.484;102.872;2022-10-12T00:35:22;19.40;;;13.35;;
18574;SDS011;9417;16.484;102.872;2022-10-12T00:37:29;20.90;;;13.32;;
18574;SDS011;9417;16.484;102.872;2022-10-12T00:39:37;17.27;;;13.07;;
18574;SDS011;9417;16.484;102.872;2022-10-12T00:41:44;17.77;;;13.63;;
18574;SDS011;9417;16.484;102.872;2022-10-12T00:43:51;17.27;;;12.85;;
18574;SDS011;9417;16.484;102.872;2022-10-12T00:46:03;18.38;;;13.75;;
18574;SDS011;9417;16.484;102.872;2022-10-12T00:48:15;18.95;;;14.20;;
18574;SDS011;9417;16.484;102.872;2022-10-12T00:50:23;17.20;;;12.45;;
18574;SDS011;9417;16.484;102.872;2022-10-12T00:52:33;17.45;;;12.23;;
18574;SDS011;9417;16.484;102.872;2022-10-12T00:54:45;19.98;;;13.38;;
18574;SDS011;9417;16.484;102.872;2022-10-12T00:56:54;17.42;;;12.23;;
18574;SDS011;9417;16.484;102.872;2022-10-12T00:59:04;18.27;;;12.90;;
18574;SDS011;9417;16.484;102.872;2022-10-12T01:01:17;16.85;;;12.00;;
18574;SDS011;9417;16.484;102.872;2022-10-12T01:03:25;17.20;;;12.27;;
18574;SDS011;9417;16.484;102.872;2022-10-12T01:05:33;16.13;;;12.27;;
18574;SDS011;9417;16.484;102.872;2022-10-12T01:07:41;16.80;;;12.73;;
18574;SDS011;9417;16.484;102.872;2022-10-12T01:09:48;16.63;;;11.43;;
18574;SDS011;9417;16.484;102.872;2022-10-12T01:11:55;16.33;;;12.40;;
18574;SDS011;9417;16.484;102.872;2022-10-12T01:14:03;16.60;;;12.13;;
18574;SDS011;9417;16.484;102.872;2022-10-12T01:16:10;17.08;;;12.10;;
18574;SDS011;9417;16.484;102.872;2022-10-12T01:18:25;15.82;;;12.18;;
18574;SDS011;9417;16.484;102.872;2022-10-12T01:20:49;15.48;;;12.10;;
18574;SDS011;9417;16.484;102.872;2022-10-12T01:23:14;17.55;;;13.85;;
18574;SDS011;9417;16.484;102.872;2022-10-12T01:25:41;20.15;;;12.40;;
18574;SDS011;9417;16.484;102.872;2022-10-12T01:28:08;15.00;;;12.43;;
18574;SDS011;9417;16.484;102.872;2022-10-12T01:30:26;16.63;;;11.25;;
18574;SDS011;9417;16.484;102.872;2022-10-12T01:32:37;15.60;;;11.57;;
18574;SDS011;9417;16.484;102.872;2022-10-12T01:34:57;15.88;;;11.10;;
18574;SDS011;9417;16.484;102.872;2022-10-12T01:37:09;17.63;;;12.90;;
18574;SDS011;9417;16.484;102.872;2022-10-12T01:39:20;14.10;;;10.95;;
18574;SDS011;9417;16.484;102.872;2022-10-12T01:41:35;15.77;;;12.30;;
18574;SDS011;9417;16.484;102.872;2022-10-12T01:43:45;28.67;;;19.48;;
18574;SDS011;9417;16.484;102.872;2022-10-12T01:46:02;86.25;;;52.75;;
18574;SDS011;9417;16.484;102.872;2022-10-12T01:48:12;56.35;;;37.97;;
18574;SDS011;9417;16.484;102.872;2022-10-12T01:50:21;29.45;;;21.35;;
18574;SDS011;9417;16.484;102.872;2022-10-12T01:52:34;66.65;;;42.80;;
18574;SDS011;9417;16.484;102.872;2022-10-12T01:54:52;24.00;;;17.27;;
18574;SDS011;9417;16.484;102.872;2022-10-12T01:57:10;27.05;;;18.52;;
18574;SDS011;9417;16.484;102.872;2022-10-12T01:59:26;50.30;;;31.85;;
18574;SDS011;9417;16.484;102.872;2022-10-12T02:01:41;61.92;;;39.42;;
18574;SDS011;9417;16.484;102.872;2022-10-12T02:03:54;32.65;;;23.92;;
18574;SDS011;9417;16.484;102.872;2022-10-12T02:06:06;19.02;;;13.38;;
18574;SDS011;9417;16.484;102.872;2022-10-12T02:08:17;17.67;;;13.10;;
18574;SDS011;9417;16.484;102.872;2022-10-12T02:10:30;12.55;;;10.50;;
18574;SDS011;9417;16.484;102.872;2022-10-12T02:12:41;18.13;;;11.68;;
18574;SDS011;9417;16.484;102.872;2022-10-12T02:14:51;18.17;;;10.95;;
18574;SDS011;9417;16.484;102.872;2022-10-12T02:17:03;38.88;;;25.50;;
18574;SDS011;9417;16.484;102.872;2022-10-12T02:19:15;17.95;;;12.13;;
18574;SDS011;9417;16.484;102.872;2022-10-12T02:23:34;16.42;;;12.45;;
18574;SDS011;9417;16.484;102.872;2022-10-12T02:25:43;13.27;;;10.45;;
18574;SDS011;9417;16.484;102.872;2022-10-12T02:27:53;17.67;;;11.88;;
18574;SDS011;9417;16.484;102.872;2022-10-12T02:30:04;17.15;;;12.18;;
18574;SDS011;9417;16.484;102.872;2022-10-12T02:32:16;17.00;;;11.50;;
18574;SDS011;9417;16.484;102.872;2022-10-12T02:34:27;16.88;;;10.10;;
18574;SDS011;9417;16.484;102.872;2022-10-12T02:36:39;16.30;;;10.05;;
18574;SDS011;9417;16.484;102.872;2022-10-12T02:38:52;15.85;;;10.25;;
18574;SDS011;9417;16.484;102.872;2022-10-12T02:41:03;13.55;;;10.07;;
18574;SDS011;9417;16.484;102.872;2022-10-12T02:43:15;12.20;;;9.80;;
18574;SDS011;9417;16.484;102.872;2022-10-12T02:45:25;14.85;;;10.65;;
18574;SDS011;9417;16.484;102.872;2022-10-12T02:47:36;17.33;;;10.77;;
18574;SDS011;9417;16.484;102.872;2022-10-12T02:49:44;13.00;;;10.60;;
18574;SDS011;9417;16.484;102.872;2022-10-12T02:51:52;14.82;;;10.95;;
18574;SDS011;9417;16.484;102.872;2022-10-12T02:54:00;13.25;;;9.88;;
18574;SDS011;9417;16.484;102.872;2022-10-12T02:56:09;14.93;;;10.15;;
18574;SDS011;9417;16.484;102.872;2022-10-12T02:58:17;12.93;;;10.15;;
18574;SDS011;9417;16.484;102.872;2022-10-12T03:00:24;15.77;;;10.90;;
18574;SDS011;9417;16.484;102.872;2022-10-12T03:02:31;15.57;;;10.75;;
18574;SDS011;9417;16.484;102.872;2022-10-12T03:04:40;17.10;;;11.23;;
18574;SDS011;9417;16.484;102.872;2022-10-12T03:06:48;14.55;;;10.52;;
18574;SDS011;9417;16.484;102.872;2022-10-12T03:08:55;14.85;;;10.38;;
18574;SDS011;9417;16.484;102.872;2022-10-12T03:11:02;16.45;;;10.32;;
18574;SDS011;9417;16.484;102.872;2022-10-12T03:13:10;12.23;;;10.15;;
18574;SDS011;9417;16.484;102.872;2022-10-12T03:15:17;15.77;;;10.80;;
18574;SDS011;9417;16.484;102.872;2022-10-12T03:17:24;17.15;;;11.02;;
18574;SDS011;9417;16.484;102.872;2022-10-12T03:19:31;13.52;;;10.48;;
18574;SDS011;9417;16.484;102.872;2022-10-12T03:21:39;14.18;;;11.25;;
18574;SDS011;9417;16.484;102.872;2022-10-12T03:23:46;14.95;;;10.82;;
18574;SDS011;9417;16.484;102.872;2022-10-12T03:25:53;13.10;;;10.85;;
18574;SDS011;9417;16.484;102.872;2022-10-12T03:28:00;14.68;;;10.35;;
18574;SDS011;9417;16.484;102.872;2022-10-12T03:30:08;14.32;;;11.35;;
18574;SDS011;9417;16.484;102.872;2022-10-12T03:34:25;14.93;;;11.05;;
18574;SDS011;9417;16.484;102.872;2022-10-12T03:36:32;13.77;;;10.43;;
18574;SDS011;9417;16.484;102.872;2022-10-12T03:38:42;12.48;;;10.73;;
18574;SDS011;9417;16.484;102.872;2022-10-12T03:40:50;19.55;;;10.85;;
18574;SDS011;9417;16.484;102.872;2022-10-12T03:42:57;13.10;;;10.95;;
18574;SDS011;9417;16.484;102.872;2022-10-12T03:45:04;13.57;;;11.05;;
18574;SDS011;9417;16.484;102.872;2022-10-12T03:47:12;15.15;;;10.70;;
18574;SDS011;9417;16.484;102.872;2022-10-12T03:49:19;16.63;;;11.40;;
18574;SDS011;9417;16.484;102.872;2022-10-12T03:51:26;13.75;;;11.27;;
18574;SDS011;9417;16.484;102.872;2022-10-12T03:53:33;16.42;;;11.60;;
18574;SDS011;9417;16.484;102.872;2022-10-12T03:55:48;14.90;;;11.20;;
18574;SDS011;9417;16.484;102.872;2022-10-12T03:57:55;16.33;;;11.13;;
18574;SDS011;9417;16.484;102.872;2022-10-12T04:00:02;15.35;;;11.27;;
18574;SDS011;9417;16.484;102.872;2022-10-12T04:02:13;13.35;;;11.02;;
18574;SDS011;9417;16.484;102.872;2022-10-12T04:04:20;13.85;;;10.02;;
18574;SDS011;9417;16.484;102.872;2022-10-12T04:06:27;16.17;;;11.05;;
18574;SDS011;9417;16.484;102.872;2022-10-12T04:08:34;17.05;;;10.65;;
18574;SDS011;9417;16.484;102.872;2022-10-12T04:10:42;11.77;;;10.55;;
18574;SDS011;9417;16.484;102.872;2022-10-12T04:12:51;12.45;;;10.07;;
18574;SDS011;9417;16.484;102.872;2022-10-12T04:14:58;13.23;;;10.13;;
18574;SDS011;9417;16.484;102.872;2022-10-12T04:17:05;11.20;;;9.30;;
18574;SDS011;9417;16.484;102.872;2022-10-12T04:19:12;17.88;;;10.07;;
18574;SDS011;9417;16.484;102.872;2022-10-12T04:21:20;12.07;;;9.85;;
18574;SDS011;9417;16.484;102.872;2022-10-12T04:23:28;13.98;;;9.85;;
18574;SDS011;9417;16.484;102.872;2022-10-12T04:25:36;11.48;;;10.00;;
18574;SDS011;9417;16.484;102.872;2022-10-12T04:27:44;12.30;;;9.70;;
18574;SDS011;9417;16.484;102.872;2022-10-12T04:29:52;12.25;;;9.25;;
18574;SDS011;9417;16.484;102.872;2022-10-12T04:31:59;14.15;;;9.40;;
18574;SDS011;9417;16.484;102.872;2022-10-12T04:34:13;13.20;;;9.35;;
18574;SDS011;9417;16.484;102.872;2022-10-12T04:36:20;12.77;;;8.77;;
18574;SDS011;9417;16.484;102.872;2022-10-12T04:38:27;11.57;;;7.78;;
18574;SDS011;9417;16.484;102.872;2022-10-12T04:40:34;12.65;;;8.50;;
18574;SDS011;9417;16.484;102.872;2022-10-12T04:42:41;12.18;;;8.43;;
18574;SDS011;9417;16.484;102.872;2022-10-12T04:44:48;11.18;;;8.90;;
18574;SDS011;9417;16.484;102.872;2022-10-12T04:46:57;11.57;;;7.85;;
18574;SDS011;9417;16.484;102.872;2022-10-12T04:49:04;11.98;;;8.75;;
18574;SDS011;9417;16.484;102.872;2022-10-12T04:51:11;14.05;;;8.05;;
18574;SDS011;9417;16.484;102.872;2022-10-12T04:53:21;11.27;;;8.10;;
18574;SDS011;9417;16.484;102.872;2022-10-12T04:55:28;12.23;;;7.82;;
18574;SDS011;9417;16.484;102.872;2022-10-12T04:57:35;11.13;;;8.30;;
18574;SDS011;9417;16.484;102.872;2022-10-12T04:59:42;10.15;;;8.65;;
18574;SDS011;9417;16.484;102.872;2022-10-12T05:01:49;10.48;;;8.68;;
18574;SDS011;9417;16.484;102.872;2022-10-12T05:03:59;13.00;;;8.25;;
18574;SDS011;9417;16.484;102.872;2022-10-12T05:06:07;11.25;;;8.23;;
18574;SDS011;9417;16.484;102.872;2022-10-12T05:08:14;11.07;;;7.82;;
18574;SDS011;9417;16.484;102.872;2022-10-12T05:10:21;9.85;;;7.47;;
18574;SDS011;9417;16.484;102.872;2022-10-12T05:12:28;11.32;;;7.57;;
18574;SDS011;9417;16.484;102.872;2022-10-12T05:14:35;12.63;;;8.60;;
18574;SDS011;9417;16.484;102.872;2022-10-12T05:16:42;9.48;;;7.75;;
18574;SDS011;9417;16.484;102.872;2022-10-12T05:18:49;11.13;;;7.40;;
18574;SDS011;9417;16.484;102.872;2022-10-12T05:20:58;10.65;;;8.48;;
18574;SDS011;9417;16.484;102.872;2022-10-12T05:23:05;9.73;;;7.88;;
18574;SDS011;9417;16.484;102.872;2022-10-12T05:25:11;11.23;;;7.85;;
18574;SDS011;9417;16.484;102.872;2022-10-12T05:27:18;12.50;;;8.00;;
18574;SDS011;9417;16.484;102.872;2022-10-12T05:29:26;11.02;;;7.85;;
18574;SDS011;9417;16.484;102.872;2022-10-12T05:31:32;10.95;;;7.60;;
18574;SDS011;9417;16.484;102.872;2022-10-12T05:33:39;8.65;;;7.72;;
18574;SDS011;9417;16.484;102.872;2022-10-12T05:35:47;10.23;;;7.88;;
18574;SDS011;9417;16.484;102.872;2022-10-12T05:38:00;9.27;;;8.00;;
18574;SDS011;9417;16.484;102.872;2022-10-12T05:40:07;9.35;;;7.93;;
18574;SDS011;9417;16.484;102.872;2022-10-12T05:42:14;9.52;;;7.38;;
18574;SDS011;9417;16.484;102.872;2022-10-12T05:44:21;9.60;;;7.07;;
18574;SDS011;9417;16.484;102.872;2022-10-12T05:46:28;10.52;;;7.90;;
18574;SDS011;9417;16.484;102.872;2022-10-12T05:48:35;10.15;;;7.72;;
18574;SDS011;9417;16.484;102.872;2022-10-12T05:50:42;10.75;;;7.57;;
18574;SDS011;9417;16.484;102.872;2022-10-12T05:52:49;8.80;;;7.28;;
18574;SDS011;9417;16.484;102.872;2022-10-12T05:54:58;9.38;;;7.53;;
18574;SDS011;9417;16.484;102.872;2022-10-12T05:57:04;8.77;;;7.22;;
18574;SDS011;9417;16.484;102.872;2022-10-12T05:59:12;10.73;;;7.45;;
18574;SDS011;9417;16.484;102.872;2022-10-12T06:01:19;8.65;;;7.47;;
18574;SDS011;9417;16.484;102.872;2022-10-12T06:03:26;10.77;;;8.23;;
18574;SDS011;9417;16.484;102.872;2022-10-12T06:05:36;12.30;;;7.45;;
18574;SDS011;9417;16.484;102.872;2022-10-12T06:07:43;11.35;;;7.22;;
18574;SDS011;9417;16.484;102.872;2022-10-12T06:09:51;8.75;;;7.10;;
18574;SDS011;9417;16.484;102.872;2022-10-12T06:12:00;9.57;;;7.30;;
18574;SDS011;9417;16.484;102.872;2022-10-12T06:14:08;10.25;;;7.25;;
18574;SDS011;9417;16.484;102.872;2022-10-12T06:16:16;8.38;;;6.65;;
18574;SDS011;9417;16.484;102.872;2022-10-12T06:18:22;9.05;;;7.53;;
18574;SDS011;9417;16.484;102.872;2022-10-12T06:20:30;10.35;;;7.50;;
18574;SDS011;9417;16.484;102.872;2022-10-12T06:22:36;9.25;;;6.82;;
18574;SDS011;9417;16.484;102.872;2022-10-12T06:24:44;9.48;;;6.90;;
18574;SDS011;9417;16.484;102.872;2022-10-12T06:26:51;9.43;;;6.90;;
18574;SDS011;9417;16.484;102.872;2022-10-12T06:28:59;8.63;;;7.10;;
18574;SDS011;9417;16.484;102.872;2022-10-12T06:31:06;9.45;;;7.45;;
18574;SDS011;9417;16.484;102.872;2022-10-12T06:33:13;12.65;;;7.63;;
18574;SDS011;9417;16.484;102.872;2022-10-12T06:35:20;11.40;;;7.45;;
18574;SDS011;9417;16.484;102.872;2022-10-12T06:37:27;10.45;;;7.30;;
18574;SDS011;9417;16.484;102.872;2022-10-12T06:39:51;9.82;;;6.95;;
18574;SDS011;9417;16.484;102.872;2022-10-12T06:41:58;8.88;;;6.50;;
18574;SDS011;9417;16.484;102.872;2022-10-12T06:44:06;10.15;;;6.95;;
18574;SDS011;9417;16.484;102.872;2022-10-12T06:46:13;8.55;;;7.13;;
18574;SDS011;9417;16.484;102.872;2022-10-12T06:48:20;9.05;;;6.78;;
18574;SDS011;9417;16.484;102.872;2022-10-12T06:50:28;9.10;;;7.10;;
18574;SDS011;9417;16.484;102.872;2022-10-12T06:52:35;9.50;;;6.50;;
18574;SDS011;9417;16.484;102.872;2022-10-12T06:54:42;7.55;;;6.00;;
18574;SDS011;9417;16.484;102.872;2022-10-12T06:56:49;8.80;;;6.80;;
18574;SDS011;9417;16.484;102.872;2022-10-12T06:59:00;11.10;;;6.10;;
18574;SDS011;9417;16.484;102.872;2022-10-12T07:01:08;8.07;;;6.40;;
18574;SDS011;9417;16.484;102.872;2022-10-12T07:03:15;11.45;;;7.03;;
18574;SDS011;9417;16.484;102.872;2022-10-12T07:05:23;12.15;;;6.93;;
18574;SDS011;9417;16.484;102.872;2022-10-12T07:07:30;9.57;;;6.78;;
18574;SDS011;9417;16.484;102.872;2022-10-12T07:09:37;8.45;;;6.47;;
18574;SDS011;9417;16.484;102.872;2022-10-12T07:11:45;9.57;;;6.00;;
18574;SDS011;9417;16.484;102.872;2022-10-12T07:13:51;8.68;;;5.90;;
18574;SDS011;9417;16.484;102.872;2022-10-12T07:15:58;6.75;;;5.30;;
18574;SDS011;9417;16.484;102.872;2022-10-12T07:18:07;7.75;;;5.47;;
18574;SDS011;9417;16.484;102.872;2022-10-12T07:20:14;7.18;;;5.63;;
18574;SDS011;9417;16.484;102.872;2022-10-12T07:22:21;8.10;;;5.85;;
18574;SDS011;9417;16.484;102.872;2022-10-12T07:24:28;8.20;;;5.45;;
18574;SDS011;9417;16.484;102.872;2022-10-12T07:26:39;10.10;;;5.43;;
18574;SDS011;9417;16.484;102.872;2022-10-12T07:28:46;7.55;;;5.78;;
18574;SDS011;9417;16.484;102.872;2022-10-12T07:30:53;9.77;;;5.80;;
18574;SDS011;9417;16.484;102.872;2022-10-12T07:33:07;9.23;;;5.57;;
18574;SDS011;9417;16.484;102.872;2022-10-12T07:35:14;9.93;;;5.45;;
18574;SDS011;9417;16.484;102.872;2022-10-12T07:37:21;7.10;;;5.97;;
18574;SDS011;9417;16.484;102.872;2022-10-12T07:39:28;7.72;;;6.03;;
18574;SDS011;9417;16.484;102.872;2022-10-12T07:41:35;7.97;;;5.57;;
18574;SDS011;9417;16.484;102.872;2022-10-12T07:43:42;7.53;;;5.50;;
18574;SDS011;9417;16.484;102.872;2022-10-12T07:45:49;8.02;;;5.50;;
18574;SDS011;9417;16.484;102.872;2022-10-12T07:47:56;6.45;;;4.85;;
18574;SDS011;9417;16.484;102.872;2022-10-12T07:50:06;8.10;;;4.85;;
18574;SDS011;9417;16.484;102.872;2022-10-12T07:52:13;8.13;;;5.28;;
18574;SDS011;9417;16.484;102.872;2022-10-12T07:54:21;6.40;;;5.13;;
18574;SDS011;9417;16.484;102.872;2022-10-12T07:56:31;5.50;;;4.85;;
18574;SDS011;9417;16.484;102.872;2022-10-12T07:58:38;8.30;;;5.22;;
18574;SDS011;9417;16.484;102.872;2022-10-12T08:00:46;7.63;;;4.88;;
18574;SDS011;9417;16.484;102.872;2022-10-12T08:02:52;8.50;;;5.20;;
18574;SDS011;9417;16.484;102.872;2022-10-12T08:05:00;9.80;;;5.35;;
18574;SDS011;9417;16.484;102.872;2022-10-12T08:07:08;5.50;;;4.75;;
18574;SDS011;9417;16.484;102.872;2022-10-12T08:09:16;7.57;;;5.13;;
18574;SDS011;9417;16.484;102.872;2022-10-12T08:11:23;9.48;;;5.35;;
18574;SDS011;9417;16.484;102.872;2022-10-12T08:13:30;7.22;;;4.88;;
18574;SDS011;9417;16.484;102.872;2022-10-12T08:15:38;8.35;;;5.05;;
18574;SDS011;9417;16.484;102.872;2022-10-12T08:17:44;5.90;;;4.90;;
18574;SDS011;9417;16.484;102.872;2022-10-12T08:19:52;8.07;;;4.88;;
18574;SDS011;9417;16.484;102.872;2022-10-12T08:21:59;6.60;;;5.00;;
18574;SDS011;9417;16.484;102.872;2022-10-12T08:24:08;7.13;;;5.20;;
18574;SDS011;9417;16.484;102.872;2022-10-12T08:26:16;6.95;;;5.10;;
18574;SDS011;9417;16.484;102.872;2022-10-12T08:28:23;7.68;;;5.28;;
18574;SDS011;9417;16.484;102.872;2022-10-12T08:30:31;7.63;;;5.70;;
18574;SDS011;9417;16.484;102.872;2022-10-12T08:32:38;6.93;;;4.95;;
18574;SDS011;9417;16.484;102.872;2022-10-12T08:34:45;7.57;;;5.05;;
18574;SDS011;9417;16.484;102.872;2022-10-12T08:36:53;5.45;;;4.60;;
18574;SDS011;9417;16.484;102.872;2022-10-12T08:39:00;6.45;;;4.60;;
18574;SDS011;9417;16.484;102.872;2022-10-12T08:43:55;6.47;;;4.50;;
18574;SDS011;9417;16.484;102.872;2022-10-12T08:46:12;6.77;;;4.97;;
18574;SDS011;9417;16.484;102.872;2022-10-12T08:48:24;7.60;;;4.60;;
18574;SDS011;9417;16.484;102.872;2022-10-12T08:50:34;6.63;;;5.00;;
18574;SDS011;9417;16.484;102.872;2022-10-12T08:52:47;6.05;;;4.38;;
18574;SDS011;9417;16.484;102.872;2022-10-12T08:55:00;5.75;;;4.60;;
18574;SDS011;9417;16.484;102.872;2022-10-12T08:57:20;6.13;;;4.68;;
18574;SDS011;9417;16.484;102.872;2022-10-12T08:59:29;5.93;;;4.68;;
18574;SDS011;9417;16.484;102.872;2022-10-12T09:01:43;6.37;;;4.80;;
18574;SDS011;9417;16.484;102.872;2022-10-12T09:04:13;7.22;;;5.07;;
18574;SDS011;9417;16.484;102.872;2022-10-12T09:06:32;6.45;;;4.78;;
18574;SDS011;9417;16.484;102.872;2022-10-12T09:08:48;9.75;;;4.90;;
18574;SDS011;9417;16.484;102.872;2022-10-12T09:11:05;6.97;;;5.20;;
18574;SDS011;9417;16.484;102.872;2022-10-12T09:13:28;6.18;;;4.85;;
18574;SDS011;9417;16.484;102.872;2022-10-12T09:15:47;7.93;;;5.30;;
18574;SDS011;9417;16.484;102.872;2022-10-12T09:17:56;6.18;;;4.82;;
18574;SDS011;9417;16.484;102.872;2022-10-12T09:20:05;6.95;;;4.88;;
18574;SDS011;9417;16.484;102.872;2022-10-12T09:22:21;8.48;;;4.95;;
18574;SDS011;9417;16.484;102.872;2022-10-12T09:24:32;7.93;;;5.50;;
18574;SDS011;9417;16.484;102.872;2022-10-12T09:26:41;6.45;;;5.10;;
18574;SDS011;9417;16.484;102.872;2022-10-12T09:28:53;6.83;;;5.27;;
18574;SDS011;9417;16.484;102.872;2022-10-12T09:31:05;8.70;;;5.53;;
18574;SDS011;9417;16.484;102.872;2022-10-12T09:33:27;8.02;;;5.60;;
18574;SDS011;9417;16.484;102.872;2022-10-12T09:35:40;7.65;;;5.43;;
18574;SDS011;9417;16.484;102.872;2022-10-12T09:37:51;8.70;;;5.63;;
18574;SDS011;9417;16.484;102.872;2022-10-12T09:39:59;10.40;;;5.53;;
18574;SDS011;9417;16.484;102.872;2022-10-12T09:42:07;8.48;;;5.82;;
18574;SDS011;9417;16.484;102.872;2022-10-12T09:44:18;6.72;;;5.07;;
18574;SDS011;9417;16.484;102.872;2022-10-12T09:46:36;9.90;;;5.75;;
18574;SDS011;9417;16.484;102.872;2022-10-12T09:48:54;7.10;;;5.18;;
18574;SDS011;9417;16.484;102.872;2022-10-12T09:51:02;9.18;;;6.00;;
18574;SDS011;9417;16.484;102.872;2022-10-12T09:53:17;7.43;;;5.22;;
18574;SDS011;9417;16.484;102.872;2022-10-12T09:55:35;7.53;;;5.35;;
18574;SDS011;9417;16.484;102.872;2022-10-12T09:57:42;6.82;;;5.30;;
18574;SDS011;9417;16.484;102.872;2022-10-12T09:59:56;7.55;;;5.30;;
18574;SDS011;9417;16.484;102.872;2022-10-12T10:02:15;9.27;;;5.25;;
18574;SDS011;9417;16.484;102.872;2022-10-12T10:04:23;6.85;;;5.43;;
18574;SDS011;9417;16.484;102.872;2022-10-12T10:06:32;7.18;;;5.28;;
18574;SDS011;9417;16.484;102.872;2022-10-12T10:08:41;6.40;;;5.35;;
18574;SDS011;9417;16.484;102.872;2022-10-12T10:10:49;7.72;;;5.93;;
18574;SDS011;9417;16.484;102.872;2022-10-12T10:12:57;7.90;;;6.00;;
18574;SDS011;9417;16.484;102.872;2022-10-12T10:15:14;6.78;;;5.28;;
18574;SDS011;9417;16.484;102.872;2022-10-12T10:17:27;8.65;;;5.93;;
18574;SDS011;9417;16.484;102.872;2022-10-12T10:19:36;8.52;;;6.00;;
18574;SDS011;9417;16.484;102.872;2022-10-12T10:21:44;9.55;;;6.20;;
18574;SDS011;9417;16.484;102.872;2022-10-12T10:23:51;9.77;;;5.47;;
18574;SDS011;9417;16.484;102.872;2022-10-12T10:26:02;12.93;;;7.05;;
18574;SDS011;9417;16.484;102.872;2022-10-12T10:28:22;12.77;;;7.97;;
18574;SDS011;9417;16.484;102.872;2022-10-12T10:30:30;21.60;;;9.90;;
18574;SDS011;9417;16.484;102.872;2022-10-12T10:32:44;15.13;;;9.23;;
18574;SDS011;9417;16.484;102.872;2022-10-12T10:35:01;9.93;;;6.78;;
18574;SDS011;9417;16.484;102.872;2022-10-12T10:37:12;10.02;;;7.70;;
18574;SDS011;9417;16.484;102.872;2022-10-12T10:39:24;13.43;;;8.77;;
18574;SDS011;9417;16.484;102.872;2022-10-12T10:41:36;12.68;;;8.48;;
18574;SDS011;9417;16.484;102.872;2022-10-12T10:43:45;16.48;;;7.88;;
18574;SDS011;9417;16.484;102.872;2022-10-12T10:45:54;10.52;;;7.70;;
18574;SDS011;9417;16.484;102.872;2022-10-12T10:48:07;11.75;;;7.03;;
18574;SDS011;9417;16.484;102.872;2022-10-12T10:50:28;13.20;;;7.50;;
18574;SDS011;9417;16.484;102.872;2022-10-12T10:52:41;14.80;;;7.30;;
18574;SDS011;9417;16.484;102.872;2022-10-12T10:54:48;10.13;;;7.00;;
18574;SDS011;9417;16.484;102.872;2022-10-12T10:57:20;13.13;;;7.77;;
18574;SDS011;9417;16.484;102.872;2022-10-12T10:59:40;10.90;;;7.07;;
18574;SDS011;9417;16.484;102.872;2022-10-12T11:01:51;9.27;;;6.78;;
18574;SDS011;9417;16.484;102.872;2022-10-12T11:06:34;10.82;;;6.45;;
18574;SDS011;9417;16.484;102.872;2022-10-12T11:08:44;9.82;;;7.43;;
18574;SDS011;9417;16.484;102.872;2022-10-12T11:10:54;10.35;;;7.63;;
18574;SDS011;9417;16.484;102.872;2022-10-12T11:13:06;12.68;;;7.32;;
18574;SDS011;9417;16.484;102.872;2022-10-12T11:15:22;10.45;;;7.15;;
18574;SDS011;9417;16.484;102.872;2022-10-12T11:17:36;9.45;;;6.45;;
18574;SDS011;9417;16.484;102.872;2022-10-12T11:19:49;9.00;;;6.43;;
18574;SDS011;9417;16.484;102.872;2022-10-12T11:22:03;10.82;;;7.03;;
18574;SDS011;9417;16.484;102.872;2022-10-12T11:24:16;9.82;;;6.97;;
18574;SDS011;9417;16.484;102.872;2022-10-12T11:26:33;10.10;;;6.78;;
18574;SDS011;9417;16.484;102.872;2022-10-12T11:28:43;11.30;;;7.25;;
18574;SDS011;9417;16.484;102.872;2022-10-12T11:30:51;10.40;;;7.40;;
18574;SDS011;9417;16.484;102.872;2022-10-12T11:32:58;12.88;;;8.10;;
18574;SDS011;9417;16.484;102.872;2022-10-12T11:37:21;12.38;;;7.75;;
18574;SDS011;9417;16.484;102.872;2022-10-12T11:39:35;10.65;;;7.63;;
18574;SDS011;9417;16.484;102.872;2022-10-12T11:41:45;11.25;;;8.27;;
18574;SDS011;9417;16.484;102.872;2022-10-12T11:44:16;11.00;;;7.68;;
18574;SDS011;9417;16.484;102.872;2022-10-12T11:46:33;12.88;;;8.63;;
18574;SDS011;9417;16.484;102.872;2022-10-12T11:48:44;11.40;;;9.10;;
18574;SDS011;9417;16.484;102.872;2022-10-12T11:50:59;13.43;;;9.05;;
18574;SDS011;9417;16.484;102.872;2022-10-12T11:53:10;12.98;;;9.82;;
18574;SDS011;9417;16.484;102.872;2022-10-12T11:55:30;14.43;;;11.05;;
18574;SDS011;9417;16.484;102.872;2022-10-12T11:57:56;14.75;;;11.05;;
18574;SDS011;9417;16.484;102.872;2022-10-12T12:00:14;16.98;;;11.15;;
18574;SDS011;9417;16.484;102.872;2022-10-12T12:02:25;17.45;;;11.23;;
18574;SDS011;9417;16.484;102.872;2022-10-12T12:04:40;18.33;;;11.80;;
18574;SDS011;9417;16.484;102.872;2022-10-12T12:07:01;20.08;;;11.50;;
18574;SDS011;9417;16.484;102.872;2022-10-12T12:09:18;18.02;;;11.38;;
18574;SDS011;9417;16.484;102.872;2022-10-12T12:11:40;15.60;;;11.25;;
18574;SDS011;9417;16.484;102.872;2022-10-12T12:13:50;14.23;;;11.38;;
18574;SDS011;9417;16.484;102.872;2022-10-12T12:16:21;16.90;;;10.57;;
18574;SDS011;9417;16.484;102.872;2022-10-12T12:21:44;18.63;;;11.70;;
18574;SDS011;9417;16.484;102.872;2022-10-12T12:24:40;19.52;;;11.13;;
18574;SDS011;9417;16.484;102.872;2022-10-12T12:29:14;16.55;;;10.75;;
18574;SDS011;9417;16.484;102.872;2022-10-12T12:31:35;16.00;;;11.63;;
18574;SDS011;9417;16.484;102.872;2022-10-12T12:33:44;17.35;;;11.15;;
18574;SDS011;9417;16.484;102.872;2022-10-12T12:35:53;21.20;;;12.05;;
18574;SDS011;9417;16.484;102.872;2022-10-12T12:38:14;19.70;;;12.23;;
18574;SDS011;9417;16.484;102.872;2022-10-12T12:40:28;18.17;;;12.07;;
18574;SDS011;9417;16.484;102.872;2022-10-12T12:42:35;20.60;;;11.40;;
18574;SDS011;9417;16.484;102.872;2022-10-12T12:44:44;16.55;;;11.48;;
18574;SDS011;9417;16.484;102.872;2022-10-12T12:49:47;17.30;;;10.90;;
18574;SDS011;9417;16.484;102.872;2022-10-12T12:51:57;16.85;;;10.60;;
18574;SDS011;9417;16.484;102.872;2022-10-12T12:54:05;17.95;;;10.77;;
18574;SDS011;9417;16.484;102.872;2022-10-12T12:56:22;18.90;;;10.88;;
18574;SDS011;9417;16.484;102.872;2022-10-12T13:01:18;16.63;;;11.88;;
18574;SDS011;9417;16.484;102.872;2022-10-12T13:03:41;16.52;;;11.05;;
18574;SDS011;9417;16.484;102.872;2022-10-12T13:08:59;16.80;;;11.50;;